UIO weather

Mariscal Sucre International Airport
Quito, Pichincha Province, Ecuador

Public forecast

Using degrees Celsius for public forecast. Weather courtesy of forecast.io.

METAR (pilot weather report)

Retrieved 2019/06/17 22:00 UTC (26 minutes ago):

SEQM 172200Z 18007KT 9999 SCT033 SCT090 22/06 Q1023 NOSIG RMK A3020

TAF (pilot weather forecast)

Retrieved 2019/06/17 18:50 UTC (4 hours ago):

TAF SEQM 171630Z 1718/1818 16012KT 9999 SCT040 TEMPO 1720/1722 BKN040 BECMG 1800/1801 03004KT BECMG 1808/1809 VRB03KT TX26/1718Z TN09/1811Z